Time;durP1;ratioP1;P1;durP2;ratioP2;P2;SDS_P1;SDS_P2;PMS_P1;PMS_P2;Temp;Humidity;BMP_temperature;BMP_pressure;BME280_temperature;BME280_humidity;BME280_pressure;Samples;Min_cycle;Max_cycle;Signal;HPM_P1;HPM_P2
2022/12/15 00:39:41;;;;;;;5.38;3.28;;;;;;;1.52;100.00;93892.88;5028211;28;20753;-76
2022/12/15 00:42:09;;;;;;;6.03;3.22;;;;;;;1.62;100.00;93872.22;5026588;28;20223;-76
2022/12/15 00:44:36;;;;;;;7.75;2.97;;;;;;;1.83;100.00;93856.66;5018762;28;20231;-77
2022/12/15 00:47:02;;;;;;;7.35;2.90;;;;;;;1.84;100.00;93860.13;5029587;28;20270;-76
2022/12/15 01:22:31;;;;;;;2.28;1.90;;;;;;;1.38;100.00;93781.56;5009875;28;20654;-78
2022/12/15 01:24:58;;;;;;;3.47;2.47;;;;;;;1.43;100.00;93792.16;5039442;28;20302;-75
2022/12/15 01:27:26;;;;;;;1.73;1.55;;;;;;;1.31;100.00;93797.16;5028831;28;20240;-75
2022/12/15 01:29:52;;;;;;;3.17;2.03;;;;;;;1.28;100.00;93781.72;5026408;28;20205;-76
2022/12/15 01:32:19;;;;;;;5.43;3.53;;;;;;;1.29;100.00;93793.97;5026807;28;20232;-76
2022/12/15 01:34:46;;;;;;;7.00;3.03;;;;;;;1.24;100.00;93790.59;5021131;28;20343;-75
2022/12/15 01:37:13;;;;;;;2.60;2.13;;;;;;;1.41;100.00;93833.56;5034029;28;20270;-75
2022/12/15 01:42:26;;;;;;;3.58;2.13;;;;;;;1.52;100.00;93818.16;5021208;28;20204;-75
2022/12/15 01:44:54;;;;;;;6.63;3.05;;;;;;;1.55;100.00;93790.91;5022369;28;20201;-75
2022/12/15 01:47:23;;;;;;;3.83;2.42;;;;;;;1.54;100.00;93778.66;5031221;28;20237;-75
2022/12/15 01:49:52;;;;;;;2.70;2.20;;;;;;;1.54;100.00;93770.66;5021872;28;20201;-74
2022/12/15 01:52:19;;;;;;;3.53;1.83;;;;;;;1.59;100.00;93791.91;5026868;28;20702;-75
2022/12/15 01:54:52;;;;;;;4.07;1.88;;;;;;;1.53;100.00;93775.19;5025929;28;20212;-75
2022/12/15 01:57:24;;;;;;;1.58;1.48;;;;;;;1.60;100.00;93793.50;5026532;28;20208;-75
2022/12/15 01:59:56;;;;;;;1.95;1.77;;;;;;;1.74;100.00;93768.44;5027379;28;20196;-76
2022/12/15 02:02:25;;;;;;;1.13;1.05;;;;;;;1.78;100.00;93757.94;5025652;28;20196;-75
2022/12/15 02:04:55;;;;;;;0.60;0.60;;;;;;;1.82;100.00;93748.28;5014653;28;20299;-75
2022/12/15 02:07:23;;;;;;;1.80;0.88;;;;;;;1.85;100.00;93737.00;5023830;28;20300;-76
2022/12/15 02:09:52;;;;;;;1.10;1.00;;;;;;;1.90;100.00;93739.59;5026441;28;20196;-76
2022/12/15 02:12:28;;;;;;;1.50;1.40;;;;;;;1.90;100.00;93736.94;5022409;28;20204;-74
2022/12/15 02:15:13;;;;;;;3.88;1.83;;;;;;;1.92;100.00;93741.94;5019269;28;20196;-75
2022/12/15 02:17:51;;;;;;;1.77;1.02;;;;;;;1.90;100.00;93720.91;5019494;28;20255;-76
2022/12/15 02:20:37;;;;;;;3.60;2.25;;;;;;;1.84;100.00;93714.06;5024598;28;20205;-73
2022/12/15 02:23:43;;;;;;;2.10;1.40;;;;;;;1.87;100.00;93718.81;5031504;28;20201;-76
2022/12/15 02:26:51;;;;;;;2.20;2.00;;;;;;;1.72;100.00;93684.41;5035739;28;20203;-75
2022/12/15 02:29:37;;;;;;;4.38;2.80;;;;;;;1.79;100.00;93669.56;5029605;28;20204;-76
2022/12/15 02:32:09;;;;;;;1.20;1.10;;;;;;;1.82;100.00;93686.88;5012761;28;20194;-76
2022/12/15 02:34:44;;;;;;;1.33;1.23;;;;;;;1.77;100.00;93711.00;5025970;28;20607;-75
2022/12/15 02:37:14;;;;;;;3.80;2.17;;;;;;;1.71;100.00;93702.28;5026021;28;20212;-75
2022/12/15 02:39:41;;;;;;;2.08;1.95;;;;;;;1.69;100.00;93717.00;5019691;28;20200;-78
2022/12/15 02:42:09;;;;;;;0.52;0.52;;;;;;;1.62;100.00;93711.28;5032207;28;20200;-75
2022/12/15 02:44:40;;;;;;;3.25;1.77;;;;;;;1.56;100.00;93709.78;5032667;28;20212;-77
2022/12/15 02:47:24;;;;;;;1.35;1.10;;;;;;;1.50;100.00;93716.31;5028874;28;20734;-76
2022/12/15 02:50:08;;;;;;;2.75;2.25;;;;;;;1.59;100.00;93738.53;5024696;28;20285;-76
2022/12/15 02:52:45;;;;;;;2.15;1.77;;;;;;;1.64;100.00;93741.13;5020428;28;20258;-76
2022/12/15 02:55:17;;;;;;;3.38;2.05;;;;;;;1.62;100.00;93759.31;5029561;28;20216;-75
2022/12/15 02:57:55;;;;;;;3.72;2.00;;;;;;;1.74;100.00;93767.66;5022426;28;20601;-76
2022/12/15 03:00:22;;;;;;;3.83;1.95;;;;;;;1.76;100.00;93754.81;5018492;28;20200;-76
2022/12/15 03:02:53;;;;;;;2.80;2.08;;;;;;;1.77;100.00;93745.72;5020683;28;20201;-76
2022/12/15 03:05:21;;;;;;;4.80;2.17;;;;;;;1.85;100.00;93753.03;5024588;28;20225;-76
2022/12/15 03:07:50;;;;;;;2.55;2.15;;;;;;;1.90;100.00;93755.63;5024694;28;20583;-77
2022/12/15 03:10:18;;;;;;;3.03;2.03;;;;;;;1.96;100.00;93754.44;5018455;28;20201;-75
2022/12/15 03:12:44;;;;;;;0.93;0.82;;;;;;;2.01;100.00;93741.00;5018726;28;20205;-75
2022/12/15 03:15:11;;;;;;;0.70;0.70;;;;;;;2.07;100.00;93745.13;5024866;28;20684;-75
2022/12/15 03:17:38;;;;;;;2.83;1.90;;;;;;;1.87;100.00;93755.41;5024410;28;20208;-76
2022/12/15 03:20:08;;;;;;;3.72;1.85;;;;;;;1.85;100.00;93742.34;5017684;28;20606;-79
2022/12/15 03:22:35;;;;;;;4.18;2.08;;;;;;;1.85;100.00;93747.69;5017346;28;20219;-76
2022/12/15 03:25:02;;;;;;;3.85;2.33;;;;;;;2.02;100.00;93745.25;5043135;28;20648;-75
2022/12/15 03:27:29;;;;;;;5.95;2.45;;;;;;;1.90;100.00;93744.94;5030996;28;20315;-75
2022/12/15 03:29:56;;;;;;;1.83;1.65;;;;;;;1.87;100.00;93740.19;5011365;28;20748;-76
2022/12/15 03:32:23;;;;;;;1.40;1.30;;;;;;;1.86;100.00;93748.47;5013833;28;20205;-76
2022/12/15 03:34:50;;;;;;;5.15;3.33;;;;;;;1.81;100.00;93745.91;5030740;28;20209;-76
2022/12/15 03:37:18;;;;;;;3.08;2.25;;;;;;;1.88;100.00;93739.09;5016112;28;20217;-76
2022/12/15 03:39:44;;;;;;;6.35;2.25;;;;;;;1.82;100.00;93739.47;5019548;28;20204;-75
2022/12/15 03:42:11;;;;;;;6.00;3.10;;;;;;;1.81;100.00;93746.69;5025810;28;20193;-76
2022/12/15 03:44:38;;;;;;;3.13;2.15;;;;;;;1.85;100.00;93741.56;5025462;28;20335;-76
2022/12/15 03:47:05;;;;;;;3.20;2.15;;;;;;;1.88;100.00;93746.31;5016846;28;20287;-76
2022/12/15 03:49:32;;;;;;;4.32;3.10;;;;;;;1.88;100.00;93762.34;5022455;28;20636;-76
2022/12/15 03:51:59;;;;;;;3.05;1.98;;;;;;;1.87;100.00;93764.22;5023142;28;20205;-76
2022/12/15 03:54:27;;;;;;;1.73;1.45;;;;;;;1.95;100.00;93768.06;5021653;28;20196;-76
2022/12/15 03:56:54;;;;;;;2.28;1.98;;;;;;;1.89;100.00;93771.94;5026808;28;20205;-75
2022/12/15 03:59:20;;;;;;;2.55;1.60;;;;;;;1.88;100.00;93767.69;5021544;28;20296;-76
2022/12/15 04:01:48;;;;;;;4.00;2.33;;;;;;;1.92;100.00;93784.66;5026775;28;20201;-75
2022/12/15 04:04:15;;;;;;;3.47;2.33;;;;;;;2.00;100.00;93784.81;5011454;28;20308;-76
2022/12/15 04:06:42;;;;;;;2.80;1.55;;;;;;;1.96;100.00;93797.16;5027938;28;20216;-76
2022/12/15 04:09:08;;;;;;;3.88;2.67;;;;;;;2.00;100.00;93798.16;5019706;28;20229;-74
2022/12/15 04:11:37;;;;;;;6.45;2.35;;;;;;;1.98;100.00;93805.66;5024215;28;20718;-74
2022/12/15 04:14:03;;;;;;;8.25;4.00;;;;;;;1.92;100.00;93800.69;5022073;28;20254;-75
2022/12/15 04:16:31;;;;;;;3.65;2.53;;;;;;;1.97;100.00;93812.09;5017463;28;20204;-75
2022/12/15 04:21:42;;;;;;;3.50;2.63;;;;;;;2.02;100.00;93822.69;5017468;28;20386;-76
2022/12/15 05:32:43;;;;;;;6.88;3.67;;;;;;;2.34;100.00;93885.16;5027180;28;20215;-75
2022/12/15 05:35:09;;;;;;;3.47;2.47;;;;;;;2.43;100.00;93899.44;5028858;28;20193;-76
2022/12/15 05:37:36;;;;;;;11.00;5.10;;;;;;;2.32;100.00;93912.19;5025620;28;20672;-75
2022/12/15 05:40:03;;;;;;;5.93;3.75;;;;;;;2.39;100.00;93911.81;5018905;28;20571;-77
2022/12/15 05:42:30;;;;;;;4.22;1.85;;;;;;;2.28;100.00;93918.41;5016590;28;20207;-77
2022/12/15 05:44:57;;;;;;;6.75;3.50;;;;;;;2.24;100.00;93936.09;5029522;28;20200;-76
2022/12/15 05:47:23;;;;;;;9.50;4.82;;;;;;;2.27;100.00;93935.53;5015802;28;20298;-75
2022/12/15 05:49:51;;;;;;;6.30;4.03;;;;;;;2.20;100.00;93945.78;5028574;28;20200;-74
2022/12/15 05:52:18;;;;;;;4.20;2.55;;;;;;;2.19;100.00;93952.25;5015098;28;20204;-76
2022/12/15 05:54:45;;;;;;;7.72;3.72;;;;;;;2.23;100.00;93956.69;5016616;28;20886;-76
2022/12/15 05:57:12;;;;;;;8.55;5.15;;;;;;;2.13;100.00;93968.34;5028100;28;20254;-76
2022/12/15 05:59:38;;;;;;;10.18;3.60;;;;;;;2.17;100.00;93984.59;5016689;28;20204;-75
2022/12/15 06:02:05;;;;;;;5.97;4.28;;;;;;;2.22;100.00;93971.13;5021596;28;20913;-74
2022/12/15 06:04:32;;;;;;;6.22;3.25;;;;;;;2.13;100.00;93997.72;5008617;28;20291;-75
2022/12/15 06:07:00;;;;;;;4.93;3.15;;;;;;;2.16;100.00;94004.38;5021687;28;20217;-74
2022/12/15 06:09:27;;;;;;;8.93;5.47;;;;;;;2.22;100.00;93997.03;5026452;28;20244;-75
2022/12/15 06:11:54;;;;;;;5.13;2.78;;;;;;;2.24;100.00;94000.22;5028859;28;20235;-75
2022/12/15 06:14:21;;;;;;;5.70;2.80;;;;;;;2.30;100.00;93993.72;5029110;28;20250;-76
2022/12/15 06:16:48;;;;;;;7.47;4.72;;;;;;;2.21;100.00;94006.16;5031182;28;20227;-76
2022/12/15 06:19:14;;;;;;;5.75;4.68;;;;;;;2.17;100.00;94010.50;5019819;28;20513;-76
2022/12/15 06:21:41;;;;;;;6.57;3.03;;;;;;;2.28;100.00;94011.94;5018681;28;20279;-77
2022/12/15 06:24:10;;;;;;;3.63;2.38;;;;;;;2.37;100.00;94010.19;5042484;28;20199;-76
2022/12/15 06:26:38;;;;;;;9.02;3.85;;;;;;;2.47;100.00;94020.69;5018822;28;20212;-76
2022/12/15 06:29:07;;;;;;;9.85;4.28;;;;;;;2.44;100.00;94024.78;5032484;28;20243;-76
2022/12/15 06:31:35;;;;;;;7.22;3.60;;;;;;;2.43;100.00;94006.34;5019579;28;20204;-74
2022/12/15 06:34:04;;;;;;;7.38;3.63;;;;;;;2.46;100.00;94014.56;5031488;28;20618;-76
2022/12/15 06:36:31;;;;;;;7.55;3.03;;;;;;;2.51;100.00;94024.38;5031967;28;20601;-75
2022/12/15 06:38:59;;;;;;;5.72;2.92;;;;;;;2.68;100.00;94032.66;5019039;28;20209;-74
2022/12/15 06:41:29;;;;;;;2.63;2.38;;;;;;;2.67;100.00;94040.97;5023314;28;20211;-75
2022/12/15 06:43:56;;;;;;;8.18;4.10;;;;;;;2.81;100.00;94049.84;5028657;28;20599;-76
2022/12/15 06:46:23;;;;;;;11.57;3.80;;;;;;;2.99;100.00;94048.19;5031879;28;20251;-75
2022/12/15 06:48:50;;;;;;;6.20;3.75;;;;;;;3.06;100.00;94048.59;5031698;28;20240;-76
2022/12/15 06:51:17;;;;;;;9.90;4.57;;;;;;;3.07;100.00;94029.56;5031586;28;20729;-77
2022/12/15 06:53:47;;;;;;;7.85;3.80;;;;;;;3.09;100.00;94034.63;5018498;28;20242;-75
2022/12/15 06:56:18;;;;;;;4.10;2.40;;;;;;;3.12;100.00;94047.44;5020627;28;20193;-74
2022/12/15 06:58:47;;;;;;;4.95;3.83;;;;;;;3.21;100.00;94040.31;5024905;28;20191;-73
2022/12/15 07:01:14;;;;;;;9.32;4.18;;;;;;;3.39;100.00;94050.13;5023986;28;20208;-73
2022/12/15 07:03:42;;;;;;;9.30;3.92;;;;;;;3.59;100.00;94046.25;5018127;28;20216;-74
2022/12/15 07:06:11;;;;;;;5.22;2.92;;;;;;;3.80;100.00;94050.13;5018894;28;20209;-73
2022/12/15 07:08:38;;;;;;;5.85;3.45;;;;;;;3.91;100.00;94056.06;5030816;28;20310;-75
2022/12/15 07:11:06;;;;;;;8.68;4.28;;;;;;;4.06;100.00;94066.47;5018346;28;20259;-72
2022/12/15 07:13:33;;;;;;;7.78;4.38;;;;;;;3.98;100.00;94064.47;5024675;28;20209;-75
2022/12/15 07:16:01;;;;;;;9.38;3.72;;;;;;;4.17;100.00;94067.84;5024471;28;20247;-75
2022/12/15 07:18:29;;;;;;;6.25;3.50;;;;;;;4.26;100.00;94063.34;5012323;28;20266;-76
2022/12/15 07:20:55;;;;;;;6.63;3.75;;;;;;;4.32;99.52;94079.31;5026182;28;20236;-75
2022/12/15 07:23:23;;;;;;;8.25;4.07;;;;;;;4.40;99.98;94073.22;5033276;28;20206;-76
2022/12/15 07:25:49;;;;;;;8.85;4.38;;;;;;;4.50;99.96;94081.88;5036164;28;20200;-76
2022/12/15 07:28:16;;;;;;;9.90;4.97;;;;;;;4.47;98.76;94087.03;5031219;28;20235;-75
2022/12/15 07:30:43;;;;;;;9.88;4.60;;;;;;;4.56;98.57;94095.94;5017835;28;20539;-74
2022/12/15 07:33:11;;;;;;;8.20;5.18;;;;;;;4.90;98.30;94085.50;5023086;28;20239;-75
2022/12/15 07:35:38;;;;;;;7.80;4.30;;;;;;;5.06;98.62;94104.66;5024625;28;20208;-77
2022/12/15 07:38:06;;;;;;;12.00;6.43;;;;;;;5.09;96.78;94114.00;5020146;28;20219;-76
2022/12/15 07:40:33;;;;;;;10.75;4.45;;;;;;;5.09;96.21;94106.75;5030896;28;20218;-75
2022/12/15 07:43:00;;;;;;;7.72;4.35;;;;;;;5.19;95.91;94103.03;5031528;28;20262;-76
2022/12/15 07:45:27;;;;;;;10.65;6.35;;;;;;;5.41;96.97;94111.06;5030849;28;20839;-76
2022/12/15 07:47:54;;;;;;;9.88;5.85;;;;;;;5.28;95.36;94096.63;5021544;28;20229;-75
2022/12/15 07:50:22;;;;;;;8.05;4.85;;;;;;;5.44;94.46;94107.78;5024363;28;20270;-74
2022/12/15 07:52:50;;;;;;;11.43;5.60;;;;;;;5.46;94.00;94105.56;5020033;28;20270;-76
2022/12/15 07:55:17;;;;;;;10.73;5.22;;;;;;;5.60;94.27;94103.56;5030741;28;20239;-74
2022/12/15 07:57:44;;;;;;;15.10;6.95;;;;;;;5.77;93.73;94113.59;5020989;28;20205;-77
2022/12/15 08:00:13;;;;;;;9.60;6.13;;;;;;;5.86;92.34;94121.72;5027502;28;20200;-74
2022/12/15 08:02:40;;;;;;;8.63;4.47;;;;;;;5.85;92.97;94122.81;5019407;28;20267;-75
2022/12/15 08:05:08;;;;;;;7.50;4.05;;;;;;;6.02;91.95;94139.81;5028347;28;20262;-77
2022/12/15 08:07:36;;;;;;;9.85;5.07;;;;;;;6.17;91.27;94137.81;5028541;28;20268;-75
2022/12/15 08:10:06;;;;;;;15.18;7.18;;;;;;;6.20;90.80;94143.38;5025957;28;20224;-76
2022/12/15 08:12:35;;;;;;;6.82;3.75;;;;;;;6.26;90.35;94147.50;5023097;28;20246;-76
2022/12/15 08:15:02;;;;;;;9.57;5.43;;;;;;;6.24;90.48;94136.28;5018858;28;20200;-75
2022/12/15 08:17:32;;;;;;;9.80;5.28;;;;;;;5.92;89.38;94142.00;5016225;28;20196;-75
2022/12/15 08:19:59;;;;;;;7.78;4.85;;;;;;;5.86;92.54;94137.84;5026746;28;20667;-76
2022/12/15 08:22:26;;;;;;;10.60;5.22;;;;;;;6.13;90.13;94137.66;5027281;28;20204;-76
2022/12/15 08:24:54;;;;;;;11.65;5.95;;;;;;;6.44;90.14;94145.66;5014868;28;20205;-76
2022/12/15 08:27:22;;;;;;;11.20;5.10;;;;;;;6.34;89.00;94137.88;5027998;28;20577;-76
2022/12/15 08:29:49;;;;;;;14.95;5.30;;;;;;;6.31;90.36;94150.03;5015336;28;20358;-75
2022/12/15 08:32:16;;;;;;;8.00;5.82;;;;;;;6.21;89.79;94160.31;5014846;28;20197;-74
2022/12/15 08:34:43;;;;;;;13.45;4.60;;;;;;;6.29;89.59;94154.94;5027572;28;20211;-75
2022/12/15 08:37:10;;;;;;;11.05;6.05;;;;;;;5.88;90.15;94162.50;5013054;28;20243;-75
2022/12/15 08:39:37;;;;;;;12.02;6.95;;;;;;;6.04;91.15;94161.03;5026103;28;20262;-75
2022/12/15 08:42:06;;;;;;;9.70;5.68;;;;;;;6.20;89.66;94170.25;5015379;28;20204;-75
2022/12/15 08:44:33;;;;;;;15.00;6.38;;;;;;;6.21;90.85;94166.47;5028410;28;20205;-76
2022/12/15 08:47:01;;;;;;;11.20;6.05;;;;;;;6.30;90.52;94175.34;5026528;28;20750;-76
2022/12/15 08:49:28;;;;;;;11.15;6.07;;;;;;;6.33;90.90;94163.97;5017395;28;20228;-74
2022/12/15 08:51:54;;;;;;;16.55;7.47;;;;;;;6.66;90.87;94166.28;5028480;28;20208;-76
2022/12/15 08:54:21;;;;;;;13.70;6.40;;;;;;;6.52;89.64;94176.38;5028732;28;20200;-78
2022/12/15 08:56:48;;;;;;;9.93;6.10;;;;;;;6.43;89.19;94169.06;5028361;28;20208;-75
2022/12/15 08:59:17;;;;;;;11.63;6.43;;;;;;;6.62;89.27;94170.69;5019519;28;20212;-75
2022/12/15 09:01:44;;;;;;;7.38;5.28;;;;;;;6.82;89.94;94166.63;5021992;28;20288;-75
2022/12/15 09:04:11;;;;;;;13.55;5.65;;;;;;;7.17;89.19;94164.72;5019092;28;20344;-75
2022/12/15 09:06:38;;;;;;;15.20;6.40;;;;;;;7.51;87.70;94156.63;5024787;28;20255;-75
2022/12/15 09:09:07;;;;;;;8.90;4.32;;;;;;;7.69;87.91;94160.88;5020493;28;20236;-75
2022/12/15 09:11:34;;;;;;;19.08;9.65;;;;;;;7.75;86.02;94143.41;5027546;28;20247;-77
2022/12/15 09:14:02;;;;;;;7.50;4.95;;;;;;;7.93;85.58;94154.94;5028139;28;20204;-75
2022/12/15 09:16:30;;;;;;;9.23;4.93;;;;;;;7.36;85.49;94152.53;5028488;28;20219;-76
2022/12/15 09:18:59;;;;;;;8.10;4.70;;;;;;;7.10;86.91;94157.94;5027460;28;20208;-76
2022/12/15 09:21:29;;;;;;;10.95;5.20;;;;;;;7.10;87.57;94149.84;5027967;28;20274;-76
2022/12/15 09:23:59;;;;;;;13.10;5.95;;;;;;;7.11;87.17;94167.56;5037570;28;20203;-75
2022/12/15 09:26:27;;;;;;;14.77;7.10;;;;;;;7.08;86.31;94172.81;5028145;28;20307;-75
2022/12/15 09:28:54;;;;;;;8.80;4.53;;;;;;;6.97;86.14;94160.78;5027121;28;20236;-75
2022/12/15 09:31:23;;;;;;;13.07;5.78;;;;;;;6.98;86.50;94173.91;5027350;28;20227;-75
2022/12/15 09:33:53;;;;;;;11.55;6.50;;;;;;;7.22;88.35;94167.28;5027924;28;20216;-75
2022/12/15 09:36:21;;;;;;;9.23;5.28;;;;;;;7.45;86.43;94160.59;5028382;28;20601;-76
2022/12/15 09:38:48;;;;;;;10.23;5.82;;;;;;;7.24;85.98;94170.44;5027309;28;20292;-77
2022/12/15 09:41:22;;;;;;;9.57;5.93;;;;;;;7.34;87.34;94172.81;5027778;28;20216;-76
2022/12/15 09:43:54;;;;;;;12.45;6.88;;;;;;;7.61;88.42;94160.91;5026878;28;20299;-76
2022/12/15 09:46:27;;;;;;;11.18;6.15;;;;;;;7.85;88.56;94163.84;5027502;28;20212;-76
2022/12/15 09:49:00;;;;;;;10.55;5.68;;;;;;;7.89;86.12;94158.63;5024720;28;20300;-75
2022/12/15 09:51:34;;;;;;;21.00;6.53;;;;;;;7.43;86.42;94160.13;5023405;28;20243;-77
2022/12/15 09:54:01;;;;;;;13.25;6.65;;;;;;;7.40;86.80;94158.06;5026796;28;20283;-75
2022/12/15 09:56:39;;;;;;;4.22;3.15;;;;;;;7.49;87.17;94180.41;5020496;28;20197;-75
2022/12/15 09:59:18;;;;;;;11.50;5.45;;;;;;;7.15;87.98;94178.50;5011905;28;20713;-74
2022/12/15 10:01:53;;;;;;;10.93;6.47;;;;;;;6.98;88.83;94184.69;5028153;28;20201;-74
2022/12/15 10:04:31;;;;;;;12.25;6.75;;;;;;;6.82;90.26;94170.13;5020981;28;20298;-74
2022/12/15 10:07:06;;;;;;;17.55;9.55;;;;;;;6.76;91.24;94166.78;5031076;28;20628;-75
2022/12/15 10:09:33;;;;;;;11.02;6.88;;;;;;;6.73;91.16;94166.59;5030386;28;20251;-75
2022/12/15 10:12:06;;;;;;;14.55;8.27;;;;;;;6.85;90.19;94169.47;5019565;28;20294;-74
2022/12/15 10:14:39;;;;;;;12.82;7.75;;;;;;;6.82;91.14;94163.94;5032210;28;20212;-74
2022/12/15 10:17:18;;;;;;;17.65;10.02;;;;;;;6.80;91.70;94164.25;5032885;28;20343;-74
2022/12/15 10:19:55;;;;;;;21.55;9.48;;;;;;;6.92;92.34;94164.41;5019483;28;20639;-75
2022/12/15 10:22:24;;;;;;;21.50;9.35;;;;;;;7.12;90.96;94166.47;5020609;28;20208;-76
2022/12/15 10:24:52;;;;;;;21.25;9.35;;;;;;;7.06;90.41;94164.25;5043315;28;20228;-75
2022/12/15 10:27:43;;;;;;;15.57;10.00;;;;;;;7.25;90.90;94169.31;5032263;28;20270;-75
2022/12/15 10:30:12;;;;;;;12.55;6.95;;;;;;;7.27;90.56;94175.19;5012170;28;20361;-75
2022/12/15 10:32:49;;;;;;;10.07;6.95;;;;;;;6.73;91.53;94186.22;5028623;28;20260;-76
2022/12/15 10:35:20;;;;;;;15.32;9.02;;;;;;;6.56;93.35;94190.81;5020808;28;20229;-76
2022/12/15 10:37:48;;;;;;;11.60;6.50;;;;;;;6.59;93.48;94182.88;5031891;28;20200;-76
2022/12/15 10:40:18;;;;;;;18.45;10.20;;;;;;;6.82;92.20;94185.47;5025899;28;20205;-74
2022/12/15 10:42:48;;;;;;;19.55;9.20;;;;;;;6.89;92.66;94189.28;5024010;28;20197;-77
2022/12/15 10:45:31;;;;;;;13.93;8.68;;;;;;;7.28;92.13;94176.75;5021031;28;20572;-75
2022/12/15 10:48:01;;;;;;;14.88;9.75;;;;;;;7.77;91.58;94189.72;5021448;28;20201;-74
2022/12/15 10:50:29;;;;;;;17.35;8.85;;;;;;;7.66;89.19;94177.69;5018073;28;20224;-74
2022/12/15 10:52:56;;;;;;;15.25;9.18;;;;;;;7.29;89.57;94178.34;5020242;28;20201;-76
2022/12/15 10:55:36;;;;;;;18.83;9.85;;;;;;;7.35;90.89;94187.88;5023304;28;20204;-78
2022/12/15 10:58:17;;;;;;;20.38;9.98;;;;;;;7.47;91.16;94179.94;5019971;28;20188;-77
2022/12/15 11:00:45;;;;;;;15.40;9.05;;;;;;;7.53;89.34;94175.16;5020860;28;20311;-75
2022/12/15 11:03:23;;;;;;;15.60;7.97;;;;;;;7.54;88.18;94185.63;5020166;28;20312;-77
2022/12/15 11:05:56;;;;;;;16.95;9.93;;;;;;;7.27;89.38;94191.34;5023808;28;20196;-76
2022/12/15 11:08:24;;;;;;;17.50;9.05;;;;;;;7.20;90.62;94175.69;5021184;28;20232;-79
2022/12/15 11:13:39;;;;;;;20.98;10.10;;;;;;;7.46;90.61;94173.75;5019697;28;20211;-75
2022/12/15 11:16:16;;;;;;;19.58;10.55;;;;;;;7.54;90.66;94169.44;5030612;28;20204;-76
2022/12/15 11:18:48;;;;;;;15.07;7.93;;;;;;;7.22;90.63;94172.66;5020511;28;20197;-76
2022/12/15 11:21:22;;;;;;;15.52;8.43;;;;;;;7.48;91.52;94173.44;5024820;28;20220;-76
2022/12/15 11:24:10;;;;;;;17.05;8.95;;;;;;;7.45;89.73;94166.78;5027487;28;20271;-75
2022/12/15 11:26:55;;;;;;;21.38;9.20;;;;;;;7.30;90.65;94185.34;5019609;28;20243;-76
2022/12/15 11:29:33;;;;;;;19.20;11.25;;;;;;;7.45;89.63;94177.56;5029856;28;20240;-75
2022/12/15 11:32:00;;;;;;;22.30;12.07;;;;;;;7.51;89.52;94175.50;5018802;28;20614;-75
2022/12/15 11:34:35;;;;;;;20.92;11.65;;;;;;;7.73;88.18;94187.97;5024802;28;20259;-75
2022/12/15 11:37:30;;;;;;;37.15;20.50;;;;;;;7.84;88.28;94184.63;5024500;28;20610;-75
2022/12/15 11:40:17;;;;;;;23.63;10.20;;;;;;;7.77;88.37;94178.94;5022237;28;20765;-74
2022/12/15 11:42:55;;;;;;;22.02;11.82;;;;;;;8.02;87.81;94185.38;5017934;28;20705;-74
2022/12/15 11:45:26;;;;;;;33.28;20.85;;;;;;;8.06;87.63;94186.28;5031110;28;20239;-74
2022/12/15 11:48:01;;;;;;;37.20;21.20;;;;;;;8.37;87.74;94185.28;5022204;28;20201;-74
2022/12/15 11:50:33;;;;;;;22.15;10.15;;;;;;;8.32;85.87;94186.25;5024614;28;20220;-75
2022/12/15 11:53:18;;;;;;;23.67;12.25;;;;;;;8.16;86.69;94185.19;5022103;28;20196;-74
2022/12/15 11:55:53;;;;;;;16.15;10.25;;;;;;;8.18;87.45;94193.75;5017615;28;20262;-74
2022/12/15 11:58:37;;;;;;;20.92;12.05;;;;;;;7.44;88.88;94194.03;5017695;28;20192;-75
2022/12/15 12:01:14;;;;;;;24.45;11.07;;;;;;;7.82;90.01;94192.25;5020438;28;20205;-74
2022/12/15 12:03:49;;;;;;;21.30;9.80;;;;;;;8.12;88.22;94192.31;5029264;28;20224;-74
2022/12/15 12:06:23;;;;;;;38.05;20.70;;;;;;;8.45;87.07;94193.34;5018917;28;20966;-75
2022/12/15 12:09:09;;;;;;;21.77;11.98;;;;;;;8.86;86.53;94198.06;5018106;28;20621;-77
2022/12/15 12:11:43;;;;;;;29.52;18.05;;;;;;;9.55;84.97;94191.34;5026451;28;20355;-75
2022/12/15 12:14:24;;;;;;;32.78;17.88;;;;;;;9.67;83.42;94194.09;5022112;28;20202;-74
2022/12/15 12:17:03;;;;;;;18.23;10.40;;;;;;;9.45;81.61;94194.44;5017920;28;20196;-73
2022/12/15 12:19:36;;;;;;;28.80;17.50;;;;;;;9.36;82.46;94193.72;5028627;28;20204;-73
2022/12/15 12:22:07;;;;;;;18.38;10.65;;;;;;;9.20;83.63;94196.22;5019687;28;20204;-73
2022/12/15 12:24:41;;;;;;;23.45;12.00;;;;;;;9.23;83.04;94196.38;5041469;28;20279;-76
2022/12/15 12:27:18;;;;;;;27.33;16.35;;;;;;;9.27;84.03;94207.31;5028667;28;20187;-75
2022/12/15 12:29:48;;;;;;;20.52;10.45;;;;;;;9.16;84.52;94204.19;5022869;28;20307;-74
2022/12/15 12:32:24;;;;;;;18.58;9.88;;;;;;;8.87;85.09;94215.84;5027603;28;20212;-74
2022/12/15 12:35:01;;;;;;;19.42;10.43;;;;;;;8.72;85.72;94221.00;5027946;28;20196;-74
2022/12/15 12:37:34;;;;;;;18.90;10.02;;;;;;;8.63;86.12;94220.25;5016757;28;20200;-73
2022/12/15 12:40:07;;;;;;;27.25;10.02;;;;;;;8.39;87.22;94226.22;5030091;28;20278;-75
2022/12/15 12:42:41;;;;;;;19.98;10.25;;;;;;;8.75;86.49;94228.44;5029785;28;20250;-76
2022/12/15 12:45:12;;;;;;;18.48;10.05;;;;;;;8.81;86.42;94236.03;5029027;28;20215;-76
2022/12/15 12:47:44;;;;;;;31.65;18.55;;;;;;;8.66;86.21;94239.28;5024772;28;20197;-74
2022/12/15 12:50:18;;;;;;;26.70;13.32;;;;;;;8.54;86.10;94239.97;5027575;28;20220;-74
2022/12/15 12:52:51;;;;;;;14.48;8.30;;;;;;;8.68;86.86;94241.66;5021609;28;20198;-75
2022/12/15 12:55:38;;;;;;;14.55;8.98;;;;;;;8.65;86.72;94231.50;5026716;28;20200;-75
2022/12/15 12:58:32;;;;;;;16.58;8.95;;;;;;;8.74;87.86;94237.69;5026827;28;20196;-74
2022/12/15 13:01:18;;;;;;;16.02;8.90;;;;;;;8.30;87.52;94237.03;5014395;28;20280;-75
2022/12/15 13:03:45;;;;;;;16.33;8.43;;;;;;;8.58;88.23;94244.75;5022152;28;20221;-75
2022/12/15 13:06:21;;;;;;;13.15;6.07;;;;;;;8.54;87.00;94249.97;5017113;28;20287;-76
2022/12/15 13:08:51;;;;;;;19.67;10.50;;;;;;;8.53;87.70;94243.78;5023549;28;20236;-74
2022/12/15 13:11:57;;;;;;;15.82;8.65;;;;;;;8.32;88.21;94242.94;5018437;28;20727;-76
2022/12/15 13:14:36;;;;;;;25.85;9.30;;;;;;;8.45;88.25;94252.72;5021874;28;20193;-75
2022/12/15 13:17:07;;;;;;;13.25;8.38;;;;;;;8.06;88.69;94234.84;5029137;28;20250;-76
2022/12/15 13:20:19;;;;;;;15.82;7.18;;;;;;;8.03;90.87;94256.31;5019126;28;20192;-75
2022/12/15 13:22:46;;;;;;;15.25;7.80;;;;;;;7.72;92.34;94257.28;4976034;28;20580;-75
2022/12/15 13:25:37;;;;;;;16.00;7.05;;;;;;;7.85;92.31;94266.31;5035952;28;20204;-74
2022/12/15 13:28:42;;;;;;;12.38;5.68;;;;;;;7.88;91.78;94260.28;5023568;28;20220;-78
2022/12/15 13:31:29;;;;;;;17.48;7.72;;;;;;;7.71;92.28;94271.88;5009063;28;20307;-76
2022/12/15 13:34:03;;;;;;;13.57;6.72;;;;;;;7.78;92.33;94266.81;5015732;28;20189;-74
2022/12/15 13:37:07;;;;;;;14.63;7.53;;;;;;;7.82;92.52;94269.63;5029450;28;20226;-75
2022/12/15 13:40:06;;;;;;;11.68;6.30;;;;;;;7.60;92.70;94269.81;4953021;29;20310;-76
2022/12/15 13:42:35;;;;;;;17.80;7.70;;;;;;;7.72;93.31;94268.06;4947524;29;20207;-75
2022/12/15 13:45:42;;;;;;;23.67;9.15;;;;;;;7.64;93.37;94276.16;5004256;28;20196;-74
2022/12/15 13:48:37;;;;;;;14.75;6.82;;;;;;;7.37;93.79;94266.50;5019332;28;20193;-76
2022/12/15 13:51:21;;;;;;;16.35;8.90;;;;;;;7.58;94.46;94280.13;5021858;28;20219;-73
2022/12/15 13:53:53;;;;;;;19.05;8.10;;;;;;;7.36;94.96;94287.25;5029774;28;20629;-75
2022/12/15 13:56:26;;;;;;;14.15;7.60;;;;;;;7.44;94.97;94283.75;5026132;28;20189;-75
2022/12/15 13:58:59;;;;;;;15.27;8.10;;;;;;;7.47;95.32;94287.72;5019186;28;20574;-75
2022/12/15 14:01:27;;;;;;;16.08;7.95;;;;;;;7.31;95.40;94289.28;5033945;28;20274;-76
2022/12/15 14:04:04;;;;;;;14.25;7.25;;;;;;;7.13;96.43;94291.94;5019791;28;20227;-79
2022/12/15 14:06:36;;;;;;;16.05;7.57;;;;;;;7.25;96.63;94304.00;5032692;28;20188;-76
2022/12/15 14:09:05;;;;;;;14.35;7.80;;;;;;;7.28;97.06;94301.47;5029752;28;20709;-74
2022/12/15 14:11:35;;;;;;;20.23;9.60;;;;;;;7.16;97.05;94297.81;5027941;28;20259;-75
2022/12/15 14:14:03;;;;;;;19.52;8.55;;;;;;;7.14;97.50;94312.38;5024477;28;20623;-74
2022/12/15 14:16:34;;;;;;;21.33;10.73;;;;;;;6.88;97.78;94303.44;5019991;28;20201;-74
2022/12/15 14:19:13;;;;;;;18.33;8.95;;;;;;;6.95;98.41;94325.34;5020595;28;20275;-76
2022/12/15 14:21:47;;;;;;;36.13;20.58;;;;;;;6.62;98.87;94307.94;5025546;28;20275;-74
2022/12/15 14:24:23;;;;;;;24.88;12.80;;;;;;;6.70;99.35;94323.31;5041962;28;20620;-75